createdAt,value
2018-08-11T00:00:34.592Z,944.71
2018-08-11T00:01:34.594Z,944.69
2018-08-11T00:02:34.594Z,944.68
2018-08-11T00:03:34.593Z,944.67
2018-08-11T00:04:34.594Z,944.64
2018-08-11T00:05:34.594Z,944.64
2018-08-11T00:06:34.595Z,944.63
2018-08-11T00:07:34.596Z,944.63
2018-08-11T00:08:34.596Z,944.65
2018-08-11T00:09:34.596Z,944.61
2018-08-11T00:10:34.597Z,944.65
2018-08-11T00:11:34.597Z,944.61
2018-08-11T00:12:34.597Z,944.60
2018-08-11T00:13:34.597Z,944.62
2018-08-11T00:14:34.598Z,944.59
2018-08-11T00:15:34.599Z,944.59
2018-08-11T00:16:34.598Z,944.60
2018-08-11T00:17:34.599Z,944.60
2018-08-11T00:18:34.600Z,944.56
2018-08-11T00:19:34.600Z,944.55
2018-08-11T00:20:34.599Z,944.58
2018-08-11T00:21:34.601Z,944.55
2018-08-11T00:22:34.602Z,944.56
2018-08-11T00:23:34.600Z,944.54
2018-08-11T00:24:34.601Z,944.54
2018-08-11T00:25:34.601Z,944.53
2018-08-11T00:26:34.602Z,944.58
2018-08-11T00:27:34.602Z,944.59
2018-08-11T00:28:34.600Z,944.57
2018-08-11T00:29:34.602Z,944.56
2018-08-11T00:30:34.603Z,944.59
2018-08-11T00:31:34.604Z,944.59
2018-08-11T00:32:34.603Z,944.61
2018-08-11T00:33:34.604Z,944.60
2018-08-11T00:34:34.604Z,944.59
2018-08-11T00:35:34.605Z,944.56
2018-08-11T00:36:34.621Z,944.56
2018-08-11T00:37:34.605Z,944.58
2018-08-11T00:38:34.646Z,944.53
2018-08-11T00:39:34.605Z,944.59
2018-08-11T00:40:34.606Z,944.58
2018-08-11T00:41:34.606Z,944.59
2018-08-11T00:42:34.606Z,944.58
2018-08-11T00:43:34.608Z,944.58
2018-08-11T00:44:34.605Z,944.59
2018-08-11T00:45:34.607Z,944.60
2018-08-11T00:46:34.608Z,944.56
2018-08-11T00:47:34.607Z,944.54
2018-08-11T00:48:34.607Z,944.57
2018-08-11T00:49:34.662Z,944.56
2018-08-11T00:50:34.608Z,944.56
2018-08-11T00:51:34.609Z,944.55
2018-08-11T00:52:34.607Z,944.52
2018-08-11T00:53:34.610Z,944.52
2018-08-11T00:54:34.609Z,944.48
2018-08-11T00:55:34.613Z,944.45
2018-08-11T00:56:34.609Z,944.44
2018-08-11T00:57:34.609Z,944.41
2018-08-11T00:58:34.610Z,944.39
2018-08-11T00:59:34.610Z,944.44
2018-08-11T01:00:34.612Z,944.44
2018-08-11T01:01:34.610Z,944.45
2018-08-11T01:02:34.610Z,944.43
2018-08-11T01:03:34.611Z,944.43
2018-08-11T01:04:34.610Z,944.42
2018-08-11T01:05:34.610Z,944.39
2018-08-11T01:06:34.611Z,944.39
2018-08-11T01:07:34.610Z,944.37
2018-08-11T01:08:34.611Z,944.39
2018-08-11T01:09:34.613Z,944.41
2018-08-11T01:10:34.611Z,944.43
2018-08-11T01:11:34.612Z,944.38
2018-08-11T01:12:34.610Z,944.37
2018-08-11T01:13:34.612Z,944.36
2018-08-11T01:14:34.611Z,944.33
2018-08-11T01:15:34.617Z,944.38
2018-08-11T01:16:34.613Z,944.35
2018-08-11T01:17:34.612Z,944.35
2018-08-11T01:18:34.619Z,944.30
2018-08-11T01:19:34.612Z,944.35
2018-08-11T01:20:34.613Z,944.33
2018-08-11T01:21:34.612Z,944.35
2018-08-11T01:22:34.611Z,944.36
2018-08-11T01:23:34.613Z,944.35
2018-08-11T01:24:34.612Z,944.34
2018-08-11T01:25:34.613Z,944.36
2018-08-11T01:26:34.613Z,944.37
2018-08-11T01:27:34.613Z,944.33
2018-08-11T01:28:34.614Z,944.34
2018-08-11T01:29:34.614Z,944.34
2018-08-11T01:30:34.612Z,944.34
2018-08-11T01:31:34.614Z,944.34
2018-08-11T01:32:34.613Z,944.29
2018-08-11T01:33:34.613Z,944.29
2018-08-11T01:34:34.613Z,944.31
2018-08-11T01:35:34.614Z,944.27
2018-08-11T01:36:34.615Z,944.31
2018-08-11T01:37:34.614Z,944.32
2018-08-11T01:38:34.613Z,944.31
2018-08-11T01:39:34.615Z,944.31
2018-08-11T01:40:34.614Z,944.30
2018-08-11T01:41:34.612Z,944.31
2018-08-11T01:42:34.614Z,944.30
2018-08-11T01:43:34.614Z,944.30
2018-08-11T01:44:34.612Z,944.32
2018-08-11T01:45:34.613Z,944.34
2018-08-11T01:46:34.614Z,944.31
2018-08-11T01:47:34.614Z,944.33
2018-08-11T01:48:34.613Z,944.31
2018-08-11T01:49:34.616Z,944.33
2018-08-11T01:50:34.614Z,944.31
2018-08-11T01:51:34.617Z,944.33
2018-08-11T01:52:34.612Z,944.31
2018-08-11T01:53:34.614Z,944.34
2018-08-11T01:54:34.614Z,944.31
2018-08-11T01:55:34.614Z,944.33
2018-08-11T01:56:34.613Z,944.29
2018-08-11T01:57:34.613Z,944.28
2018-08-11T01:58:34.615Z,944.31
2018-08-11T01:59:34.614Z,944.25
2018-08-11T02:00:34.612Z,944.26
2018-08-11T02:01:34.612Z,944.32
2018-08-11T02:02:34.614Z,944.25
2018-08-11T02:03:34.614Z,944.24
2018-08-11T02:04:34.612Z,944.25
2018-08-11T02:05:34.617Z,944.25
2018-08-11T02:06:34.614Z,944.25
2018-08-11T02:07:34.614Z,944.25
2018-08-11T02:08:34.613Z,944.24
2018-08-11T02:09:34.613Z,944.27
2018-08-11T02:10:34.613Z,944.27
2018-08-11T02:11:34.614Z,944.26
2018-08-11T02:12:34.616Z,944.28
2018-08-11T02:13:34.613Z,944.28
2018-08-11T02:14:34.612Z,944.26
2018-08-11T02:15:34.613Z,944.25
2018-08-11T02:16:34.613Z,944.20
2018-08-11T02:17:34.612Z,944.20
2018-08-11T02:18:34.613Z,944.22
2018-08-11T02:19:34.613Z,944.17
2018-08-11T02:20:34.611Z,944.17
2018-08-11T02:21:34.612Z,944.18
2018-08-11T02:22:34.611Z,944.15
2018-08-11T02:23:34.613Z,944.16
2018-08-11T02:24:34.614Z,944.15
2018-08-11T02:25:34.611Z,944.16
2018-08-11T02:26:34.612Z,944.14
2018-08-11T02:27:34.612Z,944.10
2018-08-11T02:28:34.612Z,944.14
2018-08-11T02:29:34.612Z,944.10
2018-08-11T02:30:34.612Z,944.13
2018-08-11T02:31:34.613Z,944.11
2018-08-11T02:32:34.614Z,944.14
2018-08-11T02:33:34.611Z,944.12
2018-08-11T02:34:34.614Z,944.14
2018-08-11T02:35:34.611Z,944.08
2018-08-11T02:36:34.610Z,944.09
2018-08-11T02:37:34.617Z,944.11
2018-08-11T02:38:34.610Z,944.06
2018-08-11T02:39:34.610Z,944.06
2018-08-11T02:40:34.609Z,944.08
2018-08-11T02:41:34.611Z,944.04
2018-08-11T02:42:34.610Z,944.07
2018-08-11T02:43:34.609Z,944.02
2018-08-11T02:44:34.609Z,944.03
2018-08-11T02:45:34.609Z,944.03
2018-08-11T02:46:34.609Z,944.05
2018-08-11T02:47:34.608Z,944.04
2018-08-11T02:48:34.608Z,943.99
2018-08-11T02:49:34.608Z,944.06
2018-08-11T02:50:34.608Z,944.03
2018-08-11T02:51:34.608Z,943.97
2018-08-11T02:52:34.612Z,943.97
2018-08-11T02:53:34.607Z,943.98
2018-08-11T02:54:34.606Z,944.00
2018-08-11T02:55:34.608Z,943.97
2018-08-11T02:56:34.609Z,943.98
2018-08-11T02:57:34.607Z,943.94
2018-08-11T02:58:34.607Z,943.96
2018-08-11T02:59:34.607Z,943.96
2018-08-11T03:00:34.607Z,943.92
2018-08-11T03:01:34.607Z,943.92
2018-08-11T03:02:34.708Z,943.92
2018-08-11T03:03:34.607Z,943.92
2018-08-11T03:04:34.605Z,943.94
2018-08-11T03:05:34.607Z,943.96
2018-08-11T03:06:34.607Z,943.94
2018-08-11T03:07:34.612Z,943.92
2018-08-11T03:08:34.605Z,943.97
2018-08-11T03:09:34.605Z,943.96
2018-08-11T03:10:34.616Z,943.98
2018-08-11T03:11:34.605Z,943.99
2018-08-11T03:12:34.608Z,943.99
2018-08-11T03:13:34.604Z,943.98
2018-08-11T03:14:34.605Z,944.02
2018-08-11T03:15:34.605Z,944.02
2018-08-11T03:16:34.606Z,944.00
2018-08-11T03:17:34.615Z,944.03
2018-08-11T03:18:34.603Z,944.02
2018-08-11T03:19:34.604Z,944.05
2018-08-11T03:20:34.603Z,944.02
2018-08-11T03:21:34.603Z,944.02
2018-08-11T03:22:34.603Z,944.04
2018-08-11T03:23:34.606Z,944.05
2018-08-11T03:24:34.602Z,944.06
2018-08-11T03:25:34.602Z,944.08
2018-08-11T03:26:34.602Z,944.02
2018-08-11T03:27:34.602Z,944.05
2018-08-11T03:28:34.601Z,944.05
2018-08-11T03:29:34.600Z,944.07
2018-08-11T03:30:34.601Z,944.04
2018-08-11T03:31:34.601Z,944.09
2018-08-11T03:32:34.599Z,944.08
2018-08-11T03:33:34.598Z,944.06
2018-08-11T03:34:34.599Z,944.08
2018-08-11T03:35:34.598Z,944.04
2018-08-11T03:36:34.598Z,944.07
2018-08-11T03:37:34.597Z,944.06
2018-08-11T03:38:34.597Z,944.04
2018-08-11T03:39:34.598Z,944.04
2018-08-11T03:40:34.597Z,944.08
2018-08-11T03:41:34.596Z,944.10
2018-08-11T03:42:34.599Z,944.06
2018-08-11T03:43:34.597Z,944.10
2018-08-11T03:44:34.596Z,944.07
2018-08-11T03:45:34.596Z,944.12
2018-08-11T03:46:34.599Z,944.12
2018-08-11T03:47:34.596Z,944.10
2018-08-11T03:48:34.592Z,944.13
2018-08-11T03:49:34.594Z,944.10
2018-08-11T03:50:34.599Z,944.11
2018-08-11T03:51:34.593Z,944.09
2018-08-11T03:52:34.595Z,944.14
2018-08-11T03:53:34.593Z,944.10
2018-08-11T03:54:34.592Z,944.11
2018-08-11T03:55:34.592Z,944.14
2018-08-11T03:56:34.591Z,944.10
2018-08-11T03:57:34.591Z,944.13
2018-08-11T03:58:34.591Z,944.13
2018-08-11T03:59:34.590Z,944.13
2018-08-11T04:00:34.588Z,944.15
2018-08-11T04:01:34.590Z,944.12
2018-08-11T04:02:34.589Z,944.14
2018-08-11T04:03:34.590Z,944.11
2018-08-11T04:04:34.589Z,944.10
2018-08-11T04:05:34.588Z,944.09
2018-08-11T04:06:34.606Z,944.10
2018-08-11T04:07:34.588Z,944.09
2018-08-11T04:08:34.586Z,944.06
2018-08-11T04:09:34.587Z,944.09
2018-08-11T04:10:34.586Z,944.06
2018-08-11T04:11:34.586Z,944.07
2018-08-11T04:12:34.588Z,944.08
2018-08-11T04:13:34.585Z,944.06
2018-08-11T04:14:34.586Z,944.08
2018-08-11T04:15:34.584Z,944.11
2018-08-11T04:16:34.583Z,944.12
2018-08-11T04:17:34.583Z,944.11
2018-08-11T04:18:34.581Z,944.12
2018-08-11T04:19:34.581Z,944.11
2018-08-11T04:20:34.581Z,944.11
2018-08-11T04:21:34.580Z,944.13
2018-08-11T04:22:34.581Z,944.16
2018-08-11T04:23:34.580Z,944.15
2018-08-11T04:24:34.580Z,944.13
2018-08-11T04:25:34.579Z,944.15
2018-08-11T04:26:34.578Z,944.18
2018-08-11T04:27:34.578Z,944.18
2018-08-11T04:28:34.577Z,944.20
2018-08-11T04:29:34.577Z,944.21
2018-08-11T04:30:34.577Z,944.25
2018-08-11T04:31:34.580Z,944.23
2018-08-11T04:32:34.575Z,944.23
2018-08-11T04:33:34.574Z,944.28
2018-08-11T04:34:34.574Z,944.30
2018-08-11T04:35:34.589Z,944.30
2018-08-11T04:36:34.572Z,944.33
2018-08-11T04:37:34.575Z,944.35
2018-08-11T04:38:34.573Z,944.32
2018-08-11T04:39:34.572Z,944.33
2018-08-11T04:40:34.572Z,944.37
2018-08-11T04:41:34.571Z,944.40
2018-08-11T04:42:34.572Z,944.34
2018-08-11T04:43:34.570Z,944.37
2018-08-11T04:44:34.570Z,944.39
2018-08-11T04:45:34.572Z,944.37
2018-08-11T04:46:34.570Z,944.41
2018-08-11T04:47:34.569Z,944.34
2018-08-11T04:48:34.568Z,944.42
2018-08-11T04:49:34.567Z,944.42
2018-08-11T04:50:34.571Z,944.52
2018-08-11T04:51:34.568Z,944.48
2018-08-11T04:52:34.567Z,944.50
2018-08-11T04:53:34.566Z,944.47
2018-08-11T04:54:34.566Z,944.48
2018-08-11T04:55:34.566Z,944.50
2018-08-11T04:56:34.564Z,944.48
2018-08-11T04:57:34.564Z,944.51
2018-08-11T04:58:34.565Z,944.48
2018-08-11T04:59:34.563Z,944.52
2018-08-11T05:00:34.563Z,944.53
2018-08-11T05:01:34.563Z,944.51
2018-08-11T05:02:34.563Z,944.52
2018-08-11T05:03:34.563Z,944.51
2018-08-11T05:04:34.562Z,944.55
2018-08-11T05:05:34.562Z,944.51
2018-08-11T05:06:34.562Z,944.55
2018-08-11T05:07:34.562Z,944.51
2018-08-11T05:08:34.560Z,944.53
2018-08-11T05:09:34.561Z,944.54
2018-08-11T05:10:34.560Z,944.55
2018-08-11T05:11:34.559Z,944.59
2018-08-11T05:12:34.558Z,944.59
2018-08-11T05:13:34.560Z,944.60
2018-08-11T05:14:34.560Z,944.61
2018-08-11T05:15:34.560Z,944.62
2018-08-11T05:16:34.559Z,944.63
2018-08-11T05:17:34.559Z,944.69
2018-08-11T05:18:34.559Z,944.66
2018-08-11T05:19:34.558Z,944.66
2018-08-11T05:20:34.559Z,944.70
2018-08-11T05:21:34.558Z,944.73
2018-08-11T05:22:34.596Z,944.71
2018-08-11T05:23:34.558Z,944.77
2018-08-11T05:24:34.558Z,944.75
2018-08-11T05:25:34.558Z,944.82
2018-08-11T05:26:34.557Z,944.78
2018-08-11T05:27:34.558Z,944.87
2018-08-11T05:28:34.556Z,944.87
2018-08-11T05:29:34.561Z,944.82
2018-08-11T05:30:34.557Z,944.82
2018-08-11T05:31:34.558Z,944.86
2018-08-11T05:32:34.557Z,944.84
2018-08-11T05:33:34.558Z,944.87
2018-08-11T05:34:34.556Z,944.87
2018-08-11T05:35:34.558Z,944.86
2018-08-11T05:36:34.557Z,944.92
2018-08-11T05:37:34.561Z,944.89
2018-08-11T05:38:34.557Z,944.92
2018-08-11T05:39:34.556Z,944.89
2018-08-11T05:40:34.560Z,944.88
2018-08-11T05:41:34.594Z,944.92
2018-08-11T05:42:34.558Z,944.93
2018-08-11T05:43:34.558Z,944.91
2018-08-11T05:44:34.557Z,944.93
2018-08-11T05:45:34.556Z,944.96
2018-08-11T05:46:34.557Z,944.92
2018-08-11T05:47:34.557Z,944.93
2018-08-11T05:48:34.558Z,944.94
2018-08-11T05:49:34.557Z,944.96
2018-08-11T05:50:34.558Z,944.94
2018-08-11T05:51:34.559Z,944.96
2018-08-11T05:52:34.558Z,945.01
2018-08-11T05:53:34.558Z,944.99
2018-08-11T05:54:34.561Z,944.98
2018-08-11T05:55:34.559Z,944.93
2018-08-11T05:56:34.559Z,944.94
2018-08-11T05:57:34.559Z,944.94
2018-08-11T05:58:34.558Z,944.96
2018-08-11T05:59:34.560Z,944.95
2018-08-11T06:00:34.559Z,944.96
2018-08-11T06:01:34.559Z,944.98
2018-08-11T06:02:34.559Z,944.95
2018-08-11T06:03:34.560Z,944.98
2018-08-11T06:04:34.560Z,944.98
2018-08-11T06:05:34.560Z,944.99
2018-08-11T06:06:34.559Z,945.00
2018-08-11T06:07:34.561Z,944.98
2018-08-11T06:08:34.560Z,945.02
2018-08-11T06:09:34.561Z,945.00
2018-08-11T06:10:34.605Z,944.99
2018-08-11T06:11:34.561Z,944.99
2018-08-11T06:12:34.561Z,945.01
2018-08-11T06:13:34.561Z,945.01
2018-08-11T06:14:34.561Z,945.00
2018-08-11T06:15:34.562Z,945.05
2018-08-11T06:16:34.564Z,945.06
2018-08-11T06:17:34.562Z,945.04
2018-08-11T06:18:34.563Z,945.11
2018-08-11T06:19:34.566Z,945.12
2018-08-11T06:20:34.563Z,945.11
2018-08-11T06:21:34.563Z,945.14
2018-08-11T06:22:34.564Z,945.16
2018-08-11T06:23:34.564Z,945.17
2018-08-11T06:24:34.566Z,945.19
2018-08-11T06:25:34.566Z,945.20
2018-08-11T06:26:34.566Z,945.20
2018-08-11T06:27:34.565Z,945.20
2018-08-11T06:28:34.566Z,945.18
2018-08-11T06:29:34.566Z,945.23
2018-08-11T06:30:34.570Z,945.24
2018-08-11T06:31:34.732Z,945.21
2018-08-11T06:32:34.568Z,945.25
2018-08-11T06:33:34.569Z,945.21
2018-08-11T06:34:34.570Z,945.23
2018-08-11T06:35:34.573Z,945.22
2018-08-11T06:36:34.571Z,945.26
2018-08-11T06:37:34.572Z,945.27
2018-08-11T06:38:34.573Z,945.31
2018-08-11T06:39:34.574Z,945.28
2018-08-11T06:40:34.648Z,945.26
2018-08-11T06:41:34.575Z,945.31
2018-08-11T06:42:34.576Z,945.32
2018-08-11T06:43:34.577Z,945.34
2018-08-11T06:44:34.577Z,945.30
2018-08-11T06:45:34.579Z,945.27
2018-08-11T06:46:34.599Z,945.25
2018-08-11T06:47:34.580Z,945.34
2018-08-11T06:48:34.581Z,945.26
2018-08-11T06:49:34.587Z,945.27
2018-08-11T06:50:34.584Z,945.26
2018-08-11T06:51:34.585Z,945.30
2018-08-11T06:52:34.586Z,945.29
2018-08-11T06:53:34.587Z,945.32
2018-08-11T06:54:34.587Z,945.30
2018-08-11T06:55:34.604Z,945.36
2018-08-11T06:56:34.590Z,945.32
2018-08-11T06:57:34.600Z,945.39
2018-08-11T06:58:34.595Z,945.38
2018-08-11T06:59:34.595Z,945.37
2018-08-11T07:00:34.596Z,945.39
2018-08-11T07:01:34.597Z,945.41
2018-08-11T07:02:34.599Z,945.46
2018-08-11T07:03:34.601Z,945.43
2018-08-11T07:04:34.602Z,945.35
2018-08-11T07:05:34.603Z,945.38
2018-08-11T07:06:34.646Z,946.09
2018-08-11T07:07:34.608Z,945.71
2018-08-11T07:08:34.612Z,945.41
2018-08-11T07:09:34.611Z,945.37
2018-08-11T07:10:34.615Z,945.62
2018-08-11T07:11:34.618Z,945.45
2018-08-11T07:12:34.620Z,945.59
2018-08-11T07:13:34.623Z,945.62
2018-08-11T07:14:34.627Z,945.45
2018-08-11T07:15:34.630Z,945.46
2018-08-11T07:16:34.634Z,945.40
2018-08-11T07:17:34.636Z,945.46
2018-08-11T07:18:34.640Z,945.45
2018-08-11T07:19:34.643Z,945.41
2018-08-11T07:20:34.648Z,945.46
2018-08-11T07:21:34.649Z,945.42
2018-08-11T07:22:34.654Z,945.39
2018-08-11T07:23:34.658Z,945.45
2018-08-11T07:24:34.661Z,945.47
2018-08-11T07:25:34.663Z,945.46
2018-08-11T07:26:34.711Z,945.41
2018-08-11T07:27:34.672Z,945.41
2018-08-11T07:28:34.678Z,945.39
2018-08-11T07:29:34.677Z,945.40
2018-08-11T07:30:34.682Z,945.44
2018-08-11T07:31:34.687Z,945.43
2018-08-11T07:32:34.688Z,945.39
2018-08-11T07:33:34.693Z,945.37
2018-08-11T07:34:34.696Z,945.46
2018-08-11T07:35:34.700Z,945.40
2018-08-11T07:36:34.762Z,945.48
2018-08-11T07:37:34.708Z,945.48
2018-08-11T07:38:34.711Z,945.47
2018-08-11T07:39:34.747Z,945.51
2018-08-11T07:40:34.717Z,945.47
2018-08-11T07:41:34.720Z,945.47
2018-08-11T07:42:34.729Z,945.46
2018-08-11T07:43:34.726Z,945.44
2018-08-11T07:44:34.730Z,945.44
2018-08-11T07:45:34.733Z,945.42
2018-08-11T07:46:34.742Z,945.43
2018-08-11T07:47:34.758Z,945.46
2018-08-11T07:48:34.751Z,945.40
2018-08-11T07:49:34.749Z,945.43
2018-08-11T07:50:34.750Z,945.43
2018-08-11T07:51:34.752Z,945.40
2018-08-11T07:52:34.756Z,945.41
2018-08-11T07:53:34.759Z,945.41
2018-08-11T07:54:34.762Z,945.41
2018-08-11T07:55:34.767Z,945.39
2018-08-11T07:56:34.777Z,945.38
2018-08-11T07:57:34.772Z,945.43
2018-08-11T07:58:34.774Z,945.46
2018-08-11T07:59:34.778Z,945.49
2018-08-11T08:00:34.780Z,945.50
2018-08-11T08:01:34.785Z,945.52
2018-08-11T08:02:35.028Z,945.49
2018-08-11T08:03:34.793Z,945.53
2018-08-11T08:04:34.795Z,945.52
2018-08-11T08:05:34.801Z,945.50
2018-08-11T08:06:34.802Z,945.50
2018-08-11T08:07:34.807Z,945.47
2018-08-11T08:08:34.810Z,945.51
2018-08-11T08:09:34.815Z,945.57
2018-08-11T08:10:34.819Z,945.51
2018-08-11T08:11:34.822Z,945.61
2018-08-11T08:12:34.826Z,945.51
2018-08-11T08:13:34.884Z,945.69
2018-08-11T08:14:34.836Z,945.69
2018-08-11T08:15:34.840Z,945.57
2018-08-11T08:16:34.844Z,945.65
2018-08-11T08:17:34.848Z,945.62
2018-08-11T08:18:34.854Z,945.63
2018-08-11T08:19:34.861Z,945.57
2018-08-11T08:20:34.865Z,945.53
2018-08-11T08:21:34.870Z,945.55
2018-08-11T08:22:34.876Z,945.57
2018-08-11T08:23:34.883Z,945.52
2018-08-11T08:24:34.886Z,945.59
2018-08-11T08:25:34.898Z,945.60
2018-08-11T08:26:35.017Z,945.60
2018-08-11T08:27:34.904Z,945.59
2018-08-11T08:28:34.907Z,945.58
2018-08-11T08:29:34.913Z,945.59
2018-08-11T08:30:34.918Z,945.59
2018-08-11T08:31:34.922Z,945.61
2018-08-11T08:32:34.926Z,945.58
2018-08-11T08:33:34.930Z,945.56
2018-08-11T08:34:34.935Z,945.53
2018-08-11T08:35:34.942Z,945.54
2018-08-11T08:36:34.944Z,945.58
2018-08-11T08:37:34.949Z,945.60
2018-08-11T08:38:34.953Z,945.64
2018-08-11T08:39:34.962Z,945.66
2018-08-11T08:40:35.053Z,945.62
2018-08-11T08:41:34.968Z,945.62
2018-08-11T08:42:34.974Z,945.57
2018-08-11T08:43:34.980Z,945.66
2018-08-11T08:44:34.983Z,945.69
2018-08-11T08:45:34.991Z,945.69
2018-08-11T08:46:34.997Z,945.66
2018-08-11T08:47:35.043Z,945.71
2018-08-11T08:48:35.010Z,945.73
2018-08-11T08:49:35.210Z,945.72
2018-08-11T08:50:35.025Z,945.70
2018-08-11T08:51:35.044Z,945.73
2018-08-11T08:52:35.040Z,945.73
2018-08-11T08:53:35.047Z,945.71
2018-08-11T08:54:35.057Z,945.67
2018-08-11T08:55:35.067Z,945.64
2018-08-11T08:56:35.071Z,945.64
2018-08-11T08:57:35.080Z,945.69
2018-08-11T08:58:35.089Z,945.67
2018-08-11T08:59:35.097Z,945.67
2018-08-11T09:00:35.105Z,945.69
2018-08-11T09:01:35.113Z,945.64
2018-08-11T09:02:35.123Z,945.67
2018-08-11T09:03:35.133Z,945.66
2018-08-11T09:04:35.142Z,945.71
2018-08-11T09:05:35.151Z,945.71
2018-08-11T09:06:35.159Z,945.69
2018-08-11T09:07:35.168Z,945.69
2018-08-11T09:08:35.178Z,945.71
2018-08-11T09:09:35.190Z,945.72
2018-08-11T09:10:35.198Z,945.72
2018-08-11T09:11:35.206Z,945.67
2018-08-11T09:12:35.215Z,945.76
2018-08-11T09:13:35.226Z,945.70
2018-08-11T09:14:35.236Z,945.67
2018-08-11T09:15:35.245Z,945.60
2018-08-11T09:16:35.254Z,945.62
2018-08-11T09:17:35.264Z,945.64
2018-08-11T09:18:35.274Z,945.68
2018-08-11T09:19:35.379Z,945.67
2018-08-11T09:20:35.291Z,945.67
2018-08-11T09:21:35.300Z,945.71
2018-08-11T09:22:35.309Z,945.68
2018-08-11T09:23:35.317Z,945.67
2018-08-11T09:24:35.325Z,945.64
2018-08-11T09:25:35.337Z,945.63
2018-08-11T09:26:35.343Z,945.61
2018-08-11T09:27:35.352Z,945.63
2018-08-11T09:28:35.359Z,945.64
2018-08-11T09:29:35.368Z,945.63
2018-08-11T09:30:35.378Z,945.63
2018-08-11T09:31:35.386Z,945.64
2018-08-11T09:32:35.393Z,945.68
2018-08-11T09:33:35.402Z,945.62
2018-08-11T09:34:35.411Z,945.59
2018-08-11T09:35:35.425Z,945.63
2018-08-11T09:36:35.428Z,945.62
2018-08-11T09:37:35.436Z,945.63
2018-08-11T09:38:35.447Z,945.64
2018-08-11T09:39:35.455Z,945.65
2018-08-11T09:40:35.463Z,945.62
2018-08-11T09:41:35.472Z,945.59
2018-08-11T09:42:35.486Z,945.57
2018-08-11T09:43:35.491Z,945.52
2018-08-11T09:44:35.509Z,945.57
2018-08-11T09:45:35.510Z,945.56
2018-08-11T09:46:35.518Z,945.56
2018-08-11T09:47:35.527Z,945.53
2018-08-11T09:48:35.535Z,945.55
2018-08-11T09:49:35.544Z,945.55
2018-08-11T09:50:35.554Z,945.48
2018-08-11T09:51:35.563Z,945.46
2018-08-11T09:52:35.571Z,945.48
2018-08-11T09:53:35.582Z,945.43
2018-08-11T09:54:35.590Z,945.45
2018-08-11T09:55:35.771Z,945.46
2018-08-11T09:56:35.607Z,945.46
2018-08-11T09:57:35.925Z,945.49
2018-08-11T09:58:35.627Z,945.46
2018-08-11T09:59:35.633Z,945.40
2018-08-11T10:00:35.641Z,945.42
2018-08-11T10:01:35.653Z,945.39
2018-08-11T10:02:35.658Z,945.37
2018-08-11T10:03:35.667Z,945.46
2018-08-11T10:04:35.673Z,945.44
2018-08-11T10:05:35.681Z,945.40
2018-08-11T10:06:35.692Z,945.38
2018-08-11T10:07:35.697Z,945.40
2018-08-11T10:08:35.703Z,945.40
2018-08-11T10:09:35.713Z,945.41
2018-08-11T10:10:35.768Z,945.38
2018-08-11T10:11:35.728Z,945.39
2018-08-11T10:12:35.734Z,945.38
2018-08-11T10:13:35.744Z,945.37
2018-08-11T10:14:35.748Z,945.39
2018-08-11T10:15:35.757Z,945.33
2018-08-11T10:16:35.763Z,945.32
2018-08-11T10:17:35.770Z,945.30
2018-08-11T10:18:35.858Z,945.28
2018-08-11T10:19:35.785Z,945.32
2018-08-11T10:20:35.793Z,945.31
2018-08-11T10:21:35.800Z,945.32
2018-08-11T10:22:35.809Z,945.29
2018-08-11T10:23:35.815Z,945.28
2018-08-11T10:24:35.821Z,945.27
2018-08-11T10:25:35.830Z,945.28
2018-08-11T10:26:35.837Z,945.22
2018-08-11T10:27:35.843Z,945.21
2018-08-11T10:28:35.848Z,945.21
2018-08-11T10:29:35.857Z,945.23
2018-08-11T10:30:35.864Z,945.19
2018-08-11T10:31:35.873Z,945.18
2018-08-11T10:32:35.876Z,945.17
2018-08-11T10:33:35.892Z,945.11
2018-08-11T10:34:35.891Z,945.20
2018-08-11T10:35:35.899Z,945.16
2018-08-11T10:36:35.903Z,945.15
2018-08-11T10:37:35.910Z,945.21
2018-08-11T10:38:35.917Z,945.17
2018-08-11T10:39:35.923Z,945.20
2018-08-11T10:40:35.928Z,945.23
2018-08-11T10:41:35.935Z,945.22
2018-08-11T10:42:35.944Z,945.19
2018-08-11T10:43:35.947Z,945.22
2018-08-11T10:44:35.952Z,945.18
2018-08-11T10:45:35.959Z,945.20
2018-08-11T10:46:35.970Z,945.16
2018-08-11T10:47:35.973Z,945.16
2018-08-11T10:48:35.978Z,945.09
2018-08-11T10:49:35.991Z,945.16
2018-08-11T10:50:35.992Z,945.16
2018-08-11T10:51:36.001Z,945.15
2018-08-11T10:52:36.006Z,945.16
2018-08-11T10:53:36.012Z,945.12
2018-08-11T10:54:36.019Z,945.12
2018-08-11T10:55:36.025Z,945.06
2018-08-11T10:56:36.032Z,945.13
2018-08-11T10:57:36.039Z,945.15
2018-08-11T10:58:36.046Z,945.13
2018-08-11T10:59:36.054Z,945.09
2018-08-11T11:00:36.060Z,945.07
2018-08-11T11:01:36.068Z,945.07
2018-08-11T11:02:36.074Z,945.08
2018-08-11T11:03:36.082Z,945.09
2018-08-11T11:04:36.089Z,945.07
2018-08-11T11:05:36.099Z,945.11
2018-08-11T11:06:36.105Z,945.08
2018-08-11T11:07:36.109Z,945.06
2018-08-11T11:08:36.115Z,945.06
2018-08-11T11:09:36.122Z,945.08
2018-08-11T11:10:36.129Z,945.06
2018-08-11T11:11:36.136Z,945.05
2018-08-11T11:12:36.141Z,945.07
2018-08-11T11:13:36.146Z,945.06
2018-08-11T11:14:36.156Z,945.03
2018-08-11T11:15:36.159Z,945.03
2018-08-11T11:16:36.165Z,945.06
2018-08-11T11:17:36.171Z,945.08
2018-08-11T11:18:36.192Z,945.07
2018-08-11T11:19:36.183Z,945.05
2018-08-11T11:20:36.188Z,945.05
2018-08-11T11:21:36.198Z,945.06
2018-08-11T11:22:36.201Z,945.05
2018-08-11T11:23:36.211Z,945.02
2018-08-11T11:24:36.212Z,945.03
2018-08-11T11:25:36.218Z,945.04
2018-08-11T11:26:36.224Z,945.01
2018-08-11T11:27:36.230Z,944.97
2018-08-11T11:28:36.235Z,945.02
2018-08-11T11:29:36.241Z,944.98
2018-08-11T11:30:36.249Z,945.00
2018-08-11T11:31:36.253Z,944.99
2018-08-11T11:32:36.261Z,944.98
2018-08-11T11:33:36.264Z,945.01
2018-08-11T11:34:36.272Z,945.02
2018-08-11T11:35:36.278Z,945.01
2018-08-11T11:36:36.283Z,945.04
2018-08-11T11:37:36.290Z,945.03
2018-08-11T11:38:36.296Z,945.05
2018-08-11T11:39:36.303Z,944.99
2018-08-11T11:40:36.310Z,944.98
2018-08-11T11:41:36.314Z,944.97
2018-08-11T11:42:36.322Z,944.97
2018-08-11T11:43:36.329Z,944.96
2018-08-11T11:44:36.335Z,944.96
2018-08-11T11:45:36.342Z,944.95
2018-08-11T11:46:36.350Z,944.96
2018-08-11T11:47:36.354Z,944.97
2018-08-11T11:48:36.362Z,944.96
2018-08-11T11:49:36.368Z,944.96
2018-08-11T11:50:36.376Z,944.99
2018-08-11T11:51:36.387Z,944.93
2018-08-11T11:52:36.388Z,944.93
2018-08-11T11:53:36.454Z,944.92
2018-08-11T11:54:36.402Z,944.94
2018-08-11T11:55:36.410Z,944.90
2018-08-11T11:56:36.415Z,944.91
2018-08-11T11:57:36.422Z,944.92
2018-08-11T11:58:36.429Z,944.91
2018-08-11T11:59:36.436Z,944.91
2018-08-11T12:00:36.441Z,944.91
2018-08-11T12:01:36.449Z,944.93
2018-08-11T12:02:36.456Z,944.96
2018-08-11T12:03:36.464Z,944.94
2018-08-11T12:04:36.469Z,944.94
2018-08-11T12:05:36.475Z,944.91
2018-08-11T12:06:36.482Z,944.92
2018-08-11T12:07:36.490Z,944.86
2018-08-11T12:08:36.499Z,944.87
2018-08-11T12:09:36.503Z,944.85
2018-08-11T12:10:36.510Z,944.86
2018-08-11T12:11:36.516Z,944.86
2018-08-11T12:12:36.523Z,944.87
2018-08-11T12:13:36.528Z,944.85
2018-08-11T12:14:36.535Z,944.82
2018-08-11T12:15:36.543Z,944.83
2018-08-11T12:16:36.549Z,944.84
2018-08-11T12:17:36.556Z,944.85
2018-08-11T12:18:36.563Z,944.83
2018-08-11T12:19:36.575Z,944.82
2018-08-11T12:20:36.576Z,944.78
2018-08-11T12:21:36.582Z,944.77
2018-08-11T12:22:36.590Z,944.79
2018-08-11T12:23:36.597Z,944.80
2018-08-11T12:24:36.602Z,944.74
2018-08-11T12:25:36.610Z,944.70
2018-08-11T12:26:36.615Z,944.72
2018-08-11T12:27:36.624Z,944.68
2018-08-11T12:28:36.629Z,944.68